createdAt,value
2018-09-26T00:02:08.045Z,94845.42
2018-09-26T00:04:40.117Z,94850.10
2018-09-26T00:07:08.352Z,94842.82
2018-09-26T00:09:36.793Z,94839.34
2018-09-26T00:12:05.019Z,94835.86
2018-09-26T00:14:33.258Z,94836.30
2018-09-26T00:17:01.577Z,94830.46
2018-09-26T00:19:29.795Z,94843.23
2018-09-26T00:21:58.157Z,94841.11
2018-09-26T00:24:26.407Z,94835.48
2018-09-26T00:26:54.675Z,94836.88
2018-09-26T00:29:22.922Z,94843.39
2018-09-26T00:31:51.359Z,94841.31
2018-09-26T00:34:19.485Z,94839.56
2018-09-26T00:36:47.673Z,94832.92
2018-09-26T00:39:15.877Z,94835.59
2018-09-26T00:41:44.073Z,94837.82
2018-09-26T00:44:12.252Z,94837.27
2018-09-26T00:46:40.375Z,94832.60
2018-09-26T00:49:08.676Z,94841.69
2018-09-26T00:51:36.980Z,94838.89
2018-09-26T00:54:05.171Z,94838.98
2018-09-26T00:56:33.325Z,94838.26
2018-09-26T00:59:01.551Z,94844.89
2018-09-26T01:01:29.836Z,94843.66
2018-09-26T01:03:57.993Z,94838.53
2018-09-26T01:06:26.219Z,94843.95
2018-09-26T01:08:54.390Z,94841.31
2018-09-26T01:11:22.667Z,94841.02
2018-09-26T01:13:50.821Z,94837.32
2018-09-26T01:16:19.056Z,94841.12
2018-09-26T01:18:47.333Z,94839.72
2018-09-26T01:21:15.593Z,94835.03
2018-09-26T01:23:43.954Z,94832.58
2018-09-26T01:26:12.238Z,94836.06
2018-09-26T01:28:40.440Z,94834.45
2018-09-26T01:31:08.847Z,94834.06
2018-09-26T01:33:37.033Z,94836.24
2018-09-26T01:36:05.239Z,94834.06
2018-09-26T01:38:33.598Z,94831.10
2018-09-26T01:41:01.957Z,94832.75
2018-09-26T01:43:30.273Z,94840.86
2018-09-26T01:45:58.528Z,94842.20
2018-09-26T01:48:26.833Z,94832.87
2018-09-26T01:50:55.478Z,94835.95
2018-09-26T01:53:23.743Z,94834.73
2018-09-26T01:55:51.969Z,94829.18
2018-09-26T01:58:20.307Z,94837.72
2018-09-26T02:00:48.530Z,94845.03
2018-09-26T02:03:17.811Z,94849.23
2018-09-26T02:05:46.043Z,94844.12
2018-09-26T02:08:14.365Z,94842.45
2018-09-26T02:10:42.731Z,94850.29
2018-09-26T02:13:10.962Z,94846.39
2018-09-26T02:15:39.225Z,94842.98
2018-09-26T02:18:07.572Z,94844.71
2018-09-26T02:20:35.814Z,94839.61
2018-09-26T02:23:04.145Z,94837.98
2018-09-26T02:25:32.447Z,94836.72
2018-09-26T02:28:00.657Z,94827.81
2018-09-26T02:30:28.879Z,94827.42
2018-09-26T02:32:57.134Z,94827.82
2018-09-26T02:35:25.403Z,94837.64
2018-09-26T02:37:53.636Z,94833.84
2018-09-26T02:40:21.945Z,94827.00
2018-09-26T02:42:50.269Z,94826.59
2018-09-26T02:45:18.558Z,94833.84
2018-09-26T02:47:46.881Z,94833.83
2018-09-26T02:50:15.098Z,94834.69
2018-09-26T02:52:43.209Z,94838.15
2018-09-26T02:55:11.345Z,94850.56
2018-09-26T02:57:39.468Z,94842.43
2018-09-26T03:00:07.716Z,94840.71
2018-09-26T03:02:35.865Z,94840.27
2018-09-26T03:05:04.009Z,94839.82
2018-09-26T03:07:32.082Z,94841.55
2018-09-26T03:10:00.317Z,94841.14
2018-09-26T03:12:28.458Z,94849.73
2018-09-26T03:14:56.603Z,94838.58
2018-09-26T03:17:24.751Z,94836.88
2018-09-26T03:19:52.853Z,94842.48
2018-09-26T03:22:21.013Z,94842.55
2018-09-26T03:24:49.151Z,94840.33
2018-09-26T03:27:17.290Z,94845.46
2018-09-26T03:29:45.448Z,94842.95
2018-09-26T03:32:13.583Z,94841.27
2018-09-26T03:34:41.785Z,94839.92
2018-09-26T03:37:10.290Z,94843.39
2018-09-26T03:39:38.717Z,94835.69
2018-09-26T03:42:07.149Z,94830.58
2018-09-26T03:44:35.599Z,94836.55
2018-09-26T03:47:03.824Z,94825.95
2018-09-26T03:49:32.124Z,94829.34
2018-09-26T03:52:00.415Z,94833.22
2018-09-26T03:54:28.656Z,94831.47
2018-09-26T03:56:56.919Z,94825.53
2018-09-26T03:59:25.135Z,94821.23
2018-09-26T04:01:53.490Z,94833.66
2018-09-26T04:04:21.824Z,94834.05
2018-09-26T04:06:50.156Z,94844.34
2018-09-26T04:09:18.595Z,94839.22
2018-09-26T04:11:46.950Z,94844.41
2018-09-26T04:14:15.220Z,94850.80
2018-09-26T04:16:43.507Z,94846.13
2018-09-26T04:19:11.774Z,94852.97
2018-09-26T04:21:40.176Z,94852.91
2018-09-26T04:24:08.580Z,94854.98
2018-09-26T04:26:37.049Z,94855.77
2018-09-26T04:29:05.277Z,94856.66
2018-09-26T04:31:33.588Z,94864.73
2018-09-26T04:34:01.793Z,94863.52
2018-09-26T04:36:30.057Z,94871.59
2018-09-26T04:38:58.616Z,94875.31
2018-09-26T04:41:26.717Z,94877.47
2018-09-26T04:43:55.192Z,94882.61
2018-09-26T04:46:23.522Z,94885.95
2018-09-26T04:48:52.005Z,94881.64
2018-09-26T04:51:20.318Z,94881.52
2018-09-26T04:53:48.857Z,94887.85
2018-09-26T04:56:17.479Z,94886.58
2018-09-26T04:58:45.809Z,94886.95
2018-09-26T05:01:14.208Z,94889.06
2018-09-26T05:03:42.751Z,94889.38
2018-09-26T05:06:11.226Z,94889.13
2018-09-26T05:08:39.676Z,94892.83
2018-09-26T05:11:08.244Z,94887.05
2018-09-26T05:13:36.733Z,94890.30
2018-09-26T05:16:05.131Z,94889.39
2018-09-26T05:18:33.556Z,94885.36
2018-09-26T05:21:02.000Z,94886.33
2018-09-26T05:23:30.263Z,94888.27
2018-09-26T05:25:58.634Z,94888.95
2018-09-26T05:28:27.025Z,94893.59
2018-09-26T05:30:55.465Z,94892.24
2018-09-26T05:33:24.002Z,94890.95
2018-09-26T05:35:52.553Z,94892.50
2018-09-26T05:38:20.849Z,94900.66
2018-09-26T05:40:49.594Z,94900.27
2018-09-26T05:43:18.131Z,94910.99
2018-09-26T05:45:46.577Z,94905.58
2018-09-26T05:48:15.102Z,94905.60
2018-09-26T05:50:43.711Z,94906.26
2018-09-26T05:53:12.737Z,94910.54
2018-09-26T05:55:41.247Z,94910.92
2018-09-26T05:58:09.574Z,94908.41
2018-09-26T06:00:37.916Z,94916.63
2018-09-26T06:03:06.082Z,94923.28
2018-09-26T06:05:34.267Z,94913.91
2018-09-26T06:08:02.650Z,94914.43
2018-09-26T06:10:30.847Z,94922.49
2018-09-26T06:12:59.171Z,94922.95
2018-09-26T06:15:27.422Z,94921.09
2018-09-26T06:17:55.659Z,94927.03
2018-09-26T06:20:23.922Z,94924.49
2018-09-26T06:22:52.072Z,94930.45
2018-09-26T06:25:20.261Z,94924.44
2018-09-26T06:27:48.516Z,94933.05
2018-09-26T06:30:16.776Z,94924.66
2018-09-26T06:32:44.968Z,94927.30
2018-09-26T06:35:13.346Z,94924.64
2018-09-26T06:37:41.643Z,94929.09
2018-09-26T06:40:09.871Z,94931.96
2018-09-26T06:42:38.047Z,94929.09
2018-09-26T06:45:06.928Z,94925.41
2018-09-26T06:47:35.164Z,94928.88
2018-09-26T06:50:03.345Z,94933.41
2018-09-26T06:52:31.586Z,94941.04
2018-09-26T06:54:59.817Z,94931.75
2018-09-26T06:57:27.972Z,94939.20
2018-09-26T06:59:56.209Z,94937.77
2018-09-26T07:02:24.355Z,94941.41
2018-09-26T07:04:52.498Z,94936.44
2018-09-26T07:07:20.738Z,94941.06
2018-09-26T07:09:48.995Z,94938.45
2018-09-26T07:12:17.164Z,94938.16
2018-09-26T07:14:45.460Z,94937.20
2018-09-26T07:17:13.732Z,94942.37
2018-09-26T07:19:41.982Z,94941.03
2018-09-26T07:22:10.132Z,94941.20
2018-09-26T07:24:38.335Z,94936.45
2018-09-26T07:27:07.298Z,94934.62
2018-09-26T07:29:35.687Z,94934.55
2018-09-26T07:32:03.913Z,94933.74
2018-09-26T07:34:38.993Z,94919.25
2018-09-26T07:37:07.807Z,94926.86
2018-09-26T07:39:36.943Z,94929.89
2018-09-26T07:42:05.303Z,94921.88
2018-09-26T07:44:33.840Z,94925.66
2018-09-26T07:47:02.054Z,94927.92
2018-09-26T07:49:30.267Z,94921.95
2018-09-26T07:51:58.549Z,94931.20
2018-09-26T07:54:28.105Z,94919.66
2018-09-26T07:56:56.800Z,94920.73
2018-09-26T07:59:26.346Z,94918.94
2018-09-26T08:01:55.236Z,94920.09
2018-09-26T08:04:24.686Z,94920.23
2018-09-26T08:06:54.216Z,94912.53
2018-09-26T08:09:22.315Z,94906.86
2018-09-26T08:11:50.581Z,94907.95
2018-09-26T08:14:18.851Z,94911.59
2018-09-26T08:16:47.046Z,94918.25
2018-09-26T08:19:15.428Z,94927.77
2018-09-26T08:21:43.780Z,94924.31
2018-09-26T08:24:12.091Z,94914.18
2018-09-26T08:26:40.349Z,94923.63
2018-09-26T08:29:08.757Z,94909.75
2018-09-26T08:31:36.929Z,94921.97
2018-09-26T08:34:05.143Z,94920.55
2018-09-26T08:36:33.224Z,94924.48
2018-09-26T08:39:01.444Z,94919.81
2018-09-26T08:41:29.666Z,94923.81
2018-09-26T08:43:57.869Z,94925.48
2018-09-26T08:46:26.215Z,94922.85
2018-09-26T08:48:54.365Z,94913.48
2018-09-26T08:51:22.555Z,94925.55
2018-09-26T08:53:51.152Z,94928.00
2018-09-26T08:56:19.980Z,94892.80
2018-09-26T08:58:48.222Z,94917.61
2018-09-26T09:01:21.969Z,94908.48
2018-09-26T09:03:50.177Z,94919.54
2018-09-26T09:06:18.606Z,94923.80
2018-09-26T09:08:46.698Z,94924.36
2018-09-26T09:11:14.839Z,94909.77
2018-09-26T09:13:43.057Z,94929.44
2018-09-26T09:16:11.226Z,94933.08
2018-09-26T09:18:39.539Z,94932.63
2018-09-26T09:21:07.801Z,94935.22
2018-09-26T09:23:36.161Z,94932.70
2018-09-26T09:26:04.622Z,94928.02
2018-09-26T09:28:33.245Z,94922.36
2018-09-26T09:31:01.974Z,94927.45
2018-09-26T09:33:30.398Z,94928.94
2018-09-26T09:35:59.707Z,94938.98
2018-09-26T09:38:28.045Z,94925.34
2018-09-26T09:40:56.565Z,94917.34
2018-09-26T09:43:25.077Z,94930.47
2018-09-26T09:45:53.367Z,94929.47
2018-09-26T09:48:21.578Z,94923.41
2018-09-26T09:50:49.945Z,94929.82
2018-09-26T09:53:18.861Z,94908.43
2018-09-26T09:55:49.238Z,94925.63
2018-09-26T09:58:17.535Z,94911.88
2018-09-26T10:00:51.395Z,94912.05
2018-09-26T10:03:19.621Z,94921.02
2018-09-26T10:05:47.980Z,94915.26
2018-09-26T10:08:16.378Z,94907.71
2018-09-26T10:10:44.708Z,94915.84
2018-09-26T10:13:13.079Z,94908.36
2018-09-26T10:15:41.303Z,94901.05
2018-09-26T10:18:09.660Z,94906.61
2018-09-26T10:20:38.033Z,94912.52
2018-09-26T10:23:07.647Z,94909.27
2018-09-26T10:25:40.809Z,94917.95
2018-09-26T10:28:09.531Z,94912.46
2018-09-26T10:30:37.797Z,94918.36
2018-09-26T10:33:06.192Z,94908.03
2018-09-26T10:35:34.485Z,94903.67
2018-09-26T10:38:02.762Z,94906.41
2018-09-26T10:40:31.148Z,94902.83
2018-09-26T10:42:59.776Z,94905.44
2018-09-26T10:45:28.325Z,94900.22
2018-09-26T10:47:57.010Z,94904.64
2018-09-26T10:50:25.427Z,94901.49
2018-09-26T10:52:53.947Z,94902.52
2018-09-26T10:55:22.548Z,94892.15
2018-09-26T10:57:51.160Z,94887.45
2018-09-26T11:00:19.534Z,94889.03
2018-09-26T11:02:47.740Z,94903.60
2018-09-26T11:05:16.093Z,94894.79
2018-09-26T11:07:44.460Z,94901.48
2018-09-26T11:10:12.727Z,94898.46
2018-09-26T11:12:41.129Z,94892.94
2018-09-26T11:15:09.485Z,94898.23
2018-09-26T11:17:38.016Z,94897.98
2018-09-26T11:20:06.691Z,94898.52
2018-09-26T11:22:35.107Z,94887.79
2018-09-26T11:25:03.541Z,94891.29
2018-09-26T11:27:31.916Z,94881.84
2018-09-26T11:30:00.325Z,94890.83
2018-09-26T11:32:28.636Z,94889.66
2018-09-26T11:34:57.289Z,94891.67
2018-09-26T11:37:25.707Z,94887.45
2018-09-26T11:39:54.106Z,94884.20
2018-09-26T11:42:22.375Z,94882.98
2018-09-26T11:44:50.789Z,94878.46
2018-09-26T11:47:19.049Z,94876.90
2018-09-26T11:49:47.397Z,94864.08
2018-09-26T11:52:15.849Z,94866.03
2018-09-26T11:54:44.465Z,94859.73
2018-09-26T11:57:12.926Z,94882.48
2018-09-26T11:59:41.298Z,94872.80
2018-09-26T12:02:09.677Z,94880.33
2018-09-26T12:04:38.024Z,94872.09
2018-09-26T12:07:06.442Z,94861.42
2018-09-26T12:09:34.947Z,94869.34
2018-09-26T12:12:03.784Z,94857.39
2018-09-26T12:14:32.140Z,94859.44
2018-09-26T12:17:00.519Z,94880.09
2018-09-26T12:19:29.027Z,94857.81
2018-09-26T12:21:57.616Z,94862.28
2018-09-26T12:24:26.000Z,94856.13
2018-09-26T12:26:54.418Z,94848.60
2018-09-26T12:29:22.750Z,94844.73
2018-09-26T12:31:51.052Z,94838.92
2018-09-26T12:34:19.259Z,94848.44
2018-09-26T12:36:47.581Z,94847.61
2018-09-26T12:39:15.765Z,94833.94
2018-09-26T12:41:43.960Z,94851.59
2018-09-26T12:44:12.696Z,94849.66
2018-09-26T12:46:43.264Z,94850.37
2018-09-26T12:49:11.819Z,94843.52
2018-09-26T12:51:39.947Z,94835.86
2018-09-26T12:54:09.686Z,94829.09
2018-09-26T12:56:39.211Z,94829.84
2018-09-26T12:59:08.013Z,94821.88
2018-09-26T13:01:36.605Z,94818.02
2018-09-26T13:04:04.907Z,94821.67
2018-09-26T13:06:33.136Z,94815.59
2018-09-26T13:09:03.103Z,94810.75
2018-09-26T13:11:32.924Z,94815.73
2018-09-26T13:14:03.506Z,94822.86
2018-09-26T13:16:32.800Z,94815.82
2018-09-26T13:19:01.022Z,94817.19
2018-09-26T13:21:29.233Z,94810.36
2018-09-26T13:23:57.546Z,94820.96
2018-09-26T13:26:26.455Z,94801.72
2018-09-26T13:28:54.793Z,94810.59
2018-09-26T13:31:22.868Z,94817.00
2018-09-26T13:33:51.108Z,94816.89
2018-09-26T13:36:19.372Z,94812.30
2018-09-26T13:38:47.654Z,94819.13
2018-09-26T13:41:15.822Z,94822.03
2018-09-26T13:43:43.919Z,94813.83
2018-09-26T13:46:12.206Z,94831.91
2018-09-26T13:48:40.474Z,94823.03
2018-09-26T13:51:09.081Z,94817.95
2018-09-26T13:53:37.447Z,94806.56
2018-09-26T13:56:06.174Z,94811.88
2018-09-26T13:58:34.703Z,94827.34
2018-09-26T14:01:03.383Z,94823.84
2018-09-26T14:03:31.568Z,94808.88
2018-09-26T14:05:59.764Z,94805.69
2018-09-26T14:08:28.316Z,94803.66
2018-09-26T14:10:56.561Z,94822.98
2018-09-26T14:13:24.972Z,94807.42
2018-09-26T14:15:53.238Z,94798.64
2018-09-26T14:18:21.372Z,94796.38
2018-09-26T14:20:49.665Z,94788.82
2018-09-26T14:23:17.988Z,94789.41
2018-09-26T14:25:46.007Z,94791.03
2018-09-26T14:28:14.302Z,94792.75
2018-09-26T14:30:42.676Z,94803.14
2018-09-26T14:33:10.768Z,94796.70
2018-09-26T14:35:39.082Z,94800.00
2018-09-26T14:38:07.488Z,94806.42
2018-09-26T14:40:35.991Z,94809.70
2018-09-26T14:43:04.351Z,94804.63
2018-09-26T14:45:32.587Z,94800.45
2018-09-26T14:48:00.783Z,94813.11
2018-09-26T14:50:28.972Z,94811.10
2018-09-26T14:52:57.272Z,94807.45
2018-09-26T14:55:25.587Z,94816.95
2018-09-26T14:57:53.927Z,94829.99
2018-09-26T15:00:22.108Z,94826.42
2018-09-26T15:02:50.540Z,94828.31
2018-09-26T15:05:18.695Z,94831.87
2018-09-26T15:07:46.945Z,94839.86
2018-09-26T15:10:15.134Z,94841.05
2018-09-26T15:12:43.486Z,94841.40
2018-09-26T15:15:11.678Z,94840.06
2018-09-26T15:17:39.917Z,94840.59
2018-09-26T15:20:08.249Z,94844.33
2018-09-26T15:22:36.473Z,94845.62
2018-09-26T15:25:04.736Z,94852.06
2018-09-26T15:27:33.151Z,94848.87
2018-09-26T15:30:01.525Z,94845.04
2018-09-26T15:32:29.840Z,94853.20
2018-09-26T15:34:58.184Z,94845.80
2018-09-26T15:37:26.317Z,94849.02
2018-09-26T15:39:54.505Z,94859.07
2018-09-26T15:42:23.284Z,94853.28
2018-09-26T15:44:51.348Z,94856.39
2018-09-26T15:47:19.719Z,94851.14
2018-09-26T15:49:47.878Z,94856.12
2018-09-26T15:52:16.264Z,94854.73
2018-09-26T15:54:44.439Z,94853.63
2018-09-26T15:57:12.595Z,94854.70
2018-09-26T15:59:40.841Z,94854.93
2018-09-26T16:02:09.255Z,94858.59
2018-09-26T16:04:37.370Z,94861.62
2018-09-26T16:07:05.641Z,94865.31
2018-09-26T16:09:33.865Z,94869.44
2018-09-26T16:12:03.956Z,94866.42
2018-09-26T16:14:33.649Z,94864.94
2018-09-26T16:17:02.645Z,94871.37
2018-09-26T16:19:30.932Z,94873.03
2018-09-26T16:21:59.449Z,94877.57
2018-09-26T16:24:28.306Z,94882.83
2018-09-26T16:26:56.622Z,94898.59
2018-09-26T16:29:24.859Z,94883.88
2018-09-26T16:31:52.865Z,94894.80
2018-09-26T16:34:21.045Z,94886.31
2018-09-26T16:36:49.197Z,94893.33
2018-09-26T16:39:17.474Z,94896.56
2018-09-26T16:41:45.615Z,94886.52
2018-09-26T16:44:13.818Z,94886.19
2018-09-26T16:46:41.976Z,94892.73
2018-09-26T16:49:10.201Z,94909.20
2018-09-26T16:51:38.399Z,94907.06
2018-09-26T16:54:06.671Z,94914.34
2018-09-26T16:56:34.924Z,94911.11
2018-09-26T16:59:03.088Z,94907.06
2018-09-26T17:01:31.362Z,94916.11
2018-09-26T17:03:59.439Z,94927.31
2018-09-26T17:06:27.818Z,94933.92
2018-09-26T17:08:56.724Z,94946.72
2018-09-26T17:11:24.913Z,94934.42
2018-09-26T17:13:53.245Z,94934.42
2018-09-26T17:16:22.153Z,94930.84
2018-09-26T17:18:50.564Z,94939.87
2018-09-26T17:21:18.783Z,94941.51
2018-09-26T17:23:47.336Z,94930.77
2018-09-26T17:26:15.901Z,94942.19
2018-09-26T17:28:44.520Z,94943.52
2018-09-26T17:31:13.309Z,94944.59
2018-09-26T17:33:41.768Z,94952.22
2018-09-26T17:36:10.181Z,94944.91
2018-09-26T17:38:38.702Z,94939.95
2018-09-26T17:41:07.237Z,94939.54
2018-09-26T17:43:35.453Z,94941.38
2018-09-26T17:46:04.028Z,94946.93
2018-09-26T17:48:32.316Z,94950.00
2018-09-26T17:51:01.145Z,94946.23
2018-09-26T17:53:29.441Z,94949.78
2018-09-26T17:55:57.856Z,94958.97
2018-09-26T17:58:26.186Z,94956.30
2018-09-26T18:00:54.542Z,94961.34
2018-09-26T18:03:22.913Z,94963.61
2018-09-26T18:05:51.096Z,94966.75
2018-09-26T18:08:19.348Z,94970.33
2018-09-26T18:10:47.678Z,94966.94
2018-09-26T18:13:15.824Z,94972.61
2018-09-26T18:15:43.918Z,94967.73
2018-09-26T18:18:12.386Z,94967.38
2018-09-26T18:20:40.612Z,94974.47
2018-09-26T18:23:08.981Z,94973.31
2018-09-26T18:25:37.327Z,94979.19
2018-09-26T18:28:05.627Z,94974.28
2018-09-26T18:30:34.010Z,94966.13
2018-09-26T18:33:02.367Z,94959.83
2018-09-26T18:35:30.841Z,94950.16
2018-09-26T18:37:59.110Z,94946.44
2018-09-26T18:40:27.519Z,94940.63
2018-09-26T18:42:56.025Z,94951.78
2018-09-26T18:45:24.772Z,94954.08
2018-09-26T18:47:53.597Z,94955.36
2018-09-26T18:50:22.553Z,94952.02
2018-09-26T18:52:51.795Z,94955.23
2018-09-26T18:55:20.911Z,94954.00
2018-09-26T18:57:49.390Z,94963.14
2018-09-26T19:00:18.800Z,94963.14
2018-09-26T19:02:47.703Z,94962.28
2018-09-26T19:05:16.102Z,94970.03
2018-09-26T19:07:44.757Z,94964.57
2018-09-26T19:10:12.922Z,94961.63
2018-09-26T19:12:41.305Z,94965.47
2018-09-26T19:15:09.720Z,94963.37
2018-09-26T19:17:37.959Z,94965.55
2018-09-26T19:20:06.278Z,94968.06
2018-09-26T19:22:34.793Z,94965.48
2018-09-26T19:25:02.866Z,94966.83
2018-09-26T19:27:31.346Z,94969.71
2018-09-26T19:29:59.688Z,94960.17
2018-09-26T19:32:27.868Z,94963.06
2018-09-26T19:34:56.264Z,94977.45
2018-09-26T19:37:24.729Z,94974.52
2018-09-26T19:39:53.461Z,94971.23
2018-09-26T19:42:21.929Z,94963.56
2018-09-26T19:44:50.397Z,94967.85
2018-09-26T19:47:18.895Z,94963.97
2018-09-26T19:49:47.230Z,94976.47
2018-09-26T19:52:15.739Z,94982.55
2018-09-26T19:54:44.192Z,94990.32
2018-09-26T19:57:12.590Z,94991.61
2018-09-26T19:59:41.066Z,94983.53
2018-09-26T20:02:09.786Z,94983.09
2018-09-26T20:04:38.296Z,94989.59
2018-09-26T20:07:06.867Z,94992.53
2018-09-26T20:09:35.078Z,94985.11
2018-09-26T20:12:03.436Z,94986.41
2018-09-26T20:14:31.762Z,94980.81
2018-09-26T20:17:00.066Z,94975.20
2018-09-26T20:19:28.362Z,94975.49
2018-09-26T20:21:56.791Z,94985.71
2018-09-26T20:24:25.313Z,94979.84
2018-09-26T20:26:53.921Z,94970.58
2018-09-26T20:29:24.592Z,94971.61
2018-09-26T20:31:52.871Z,94969.98
2018-09-26T20:34:22.690Z,94971.34
2018-09-26T20:36:51.781Z,94968.01
2018-09-26T20:39:20.053Z,94968.83
2018-09-26T20:41:48.296Z,94967.11
2018-09-26T20:44:16.824Z,94966.77
2018-09-26T20:46:45.675Z,94970.98
2018-09-26T20:49:14.235Z,94972.33
2018-09-26T20:51:43.688Z,94968.95
2018-09-26T20:54:11.969Z,94973.77
2018-09-26T20:56:40.335Z,94972.55
2018-09-26T20:59:08.966Z,94974.31
2018-09-26T21:01:37.859Z,94975.20
2018-09-26T21:04:06.315Z,94967.62
2018-09-26T21:06:34.732Z,94973.46
2018-09-26T21:09:04.505Z,94965.17
2018-09-26T21:11:32.945Z,94974.73
2018-09-26T21:14:01.390Z,94974.31
2018-09-26T21:16:29.985Z,94971.64
2018-09-26T21:18:58.442Z,94969.55
2018-09-26T21:21:26.723Z,94961.84
2018-09-26T21:23:55.154Z,94969.23
2018-09-26T21:26:23.507Z,94966.68
2018-09-26T21:28:51.893Z,94966.20
2018-09-26T21:31:20.327Z,94965.25
2018-09-26T21:33:48.882Z,94970.01
2018-09-26T21:36:17.258Z,94976.02
2018-09-26T21:38:45.571Z,94977.78
2018-09-26T21:41:14.069Z,94970.88
2018-09-26T21:43:42.794Z,94968.28
2018-09-26T21:46:11.933Z,94965.63
2018-09-26T21:48:40.372Z,94969.39
2018-09-26T21:51:08.615Z,94974.09
2018-09-26T21:53:36.982Z,94977.64
2018-09-26T21:56:05.274Z,94981.56
2018-09-26T21:58:33.667Z,94981.59
2018-09-26T22:01:04.137Z,94978.66
2018-09-26T22:03:33.301Z,94980.85
2018-09-26T22:06:01.665Z,94977.46
2018-09-26T22:08:29.935Z,94973.66
2018-09-26T22:10:58.275Z,94974.48
2018-09-26T22:13:26.775Z,94965.52
2018-09-26T22:15:55.164Z,94965.09
2018-09-26T22:18:23.580Z,94968.03
2018-09-26T22:20:51.910Z,94968.40
2018-09-26T22:23:20.261Z,94960.75
2018-09-26T22:25:48.602Z,94963.80
2018-09-26T22:28:16.928Z,94960.45
2018-09-26T22:30:45.094Z,94965.27
2018-09-26T22:33:13.250Z,94965.31
2018-09-26T22:35:41.463Z,94958.47
2018-09-26T22:38:10.328Z,94953.44
2018-09-26T22:40:38.462Z,94960.73
2018-09-26T22:43:06.638Z,94964.19
2018-09-26T22:45:34.785Z,94962.52
2018-09-26T22:48:03.176Z,94956.59
2018-09-26T22:50:31.391Z,94953.23
2018-09-26T22:52:59.565Z,94961.72
2018-09-26T22:55:27.719Z,94957.92
2018-09-26T22:57:55.933Z,94961.76
2018-09-26T23:00:24.176Z,94957.48
2018-09-26T23:02:52.337Z,94959.68
2018-09-26T23:05:20.881Z,94967.33
2018-09-26T23:07:49.480Z,94962.56
2018-09-26T23:10:17.663Z,94963.89
2018-09-26T23:12:45.775Z,94966.09
2018-09-26T23:15:13.818Z,94963.93
2018-09-26T23:17:41.884Z,94963.09
2018-09-26T23:20:10.033Z,94956.28
2018-09-26T23:22:38.107Z,94950.39
2018-09-26T23:25:06.351Z,94952.10
2018-09-26T23:27:34.463Z,94949.95
2018-09-26T23:30:02.502Z,94951.23
2018-09-26T23:32:30.644Z,94939.30
2018-09-26T23:34:58.657Z,94935.89
2018-09-26T23:37:26.703Z,94941.05
2018-09-26T23:39:54.731Z,94944.08
2018-09-26T23:42:22.713Z,94940.70
2018-09-26T23:44:50.789Z,94926.18
2018-09-26T23:47:18.939Z,94929.96
2018-09-26T23:49:46.938Z,94929.12
2018-09-26T23:52:15.066Z,94916.28
2018-09-26T23:54:43.224Z,94910.33
2018-09-26T23:57:11.315Z,94906.52
2018-09-26T23:59:39.375Z,94914.20
